createdAt,value
2019-01-18T00:02:13.221Z,95.59
2019-01-18T00:04:44.552Z,95.65
2019-01-18T00:07:15.870Z,95.72
2019-01-18T00:09:47.227Z,95.83
2019-01-18T00:12:18.525Z,95.98
2019-01-18T00:14:50.053Z,96.12
2019-01-18T00:17:21.848Z,96.22
2019-01-18T00:19:53.215Z,96.19
2019-01-18T00:22:24.515Z,95.95
2019-01-18T00:24:55.844Z,95.83
2019-01-18T00:27:29.355Z,95.89
2019-01-18T00:30:00.174Z,96.04
2019-01-18T00:32:31.462Z,96.03
2019-01-18T00:35:02.802Z,96.08
2019-01-18T00:37:34.177Z,96.27
2019-01-18T00:40:06.795Z,96.58
2019-01-18T00:42:38.131Z,96.82
2019-01-18T00:45:12.783Z,96.94
2019-01-18T00:47:44.159Z,97.28
2019-01-18T00:50:17.398Z,97.56
2019-01-18T00:52:48.841Z,97.94
2019-01-18T00:55:20.361Z,98.05
2019-01-18T00:57:51.696Z,98.15
2019-01-18T01:00:29.753Z,98.26
2019-01-18T01:03:01.164Z,98.25
2019-01-18T01:05:32.601Z,98.29
2019-01-18T01:08:03.918Z,98.21
2019-01-18T01:10:35.306Z,98.07
2019-01-18T01:13:06.745Z,97.90
2019-01-18T01:15:38.242Z,97.74
2019-01-18T01:18:09.825Z,97.68
2019-01-18T01:20:41.123Z,97.67
2019-01-18T01:23:12.487Z,97.58
2019-01-18T01:25:43.777Z,97.37
2019-01-18T01:28:15.112Z,97.52
2019-01-18T01:30:46.502Z,97.78
2019-01-18T01:33:17.800Z,97.85
2019-01-18T01:35:49.103Z,97.94
2019-01-18T01:38:20.408Z,97.87
2019-01-18T01:40:51.746Z,97.89
2019-01-18T01:43:23.034Z,97.97
2019-01-18T01:45:54.354Z,98.02
2019-01-18T01:48:25.662Z,97.96
2019-01-18T01:50:56.981Z,98.04
2019-01-18T01:53:28.379Z,98.07
2019-01-18T01:55:59.657Z,98.05
2019-01-18T01:58:31.008Z,98.17
2019-01-18T02:01:02.297Z,98.05
2019-01-18T02:03:33.794Z,97.92
2019-01-18T02:06:05.105Z,97.83
2019-01-18T02:08:36.448Z,98.09
2019-01-18T02:11:07.834Z,98.37
2019-01-18T02:13:39.177Z,98.65
2019-01-18T02:16:10.465Z,98.93
2019-01-18T02:18:41.791Z,99.33
2019-01-18T02:21:13.203Z,99.63
2019-01-18T02:23:44.465Z,99.69
2019-01-18T02:26:15.771Z,99.81
2019-01-18T02:28:47.057Z,99.81
2019-01-18T02:31:18.265Z,99.79
2019-01-18T02:33:52.754Z,99.78
2019-01-18T02:36:36.112Z,99.78
2019-01-18T02:39:10.740Z,99.71
2019-01-18T02:41:42.024Z,99.68
2019-01-18T02:44:13.282Z,99.59
2019-01-18T02:46:44.631Z,99.54
2019-01-18T02:49:15.896Z,99.60
2019-01-18T02:51:47.172Z,99.59
2019-01-18T02:54:18.502Z,99.55
2019-01-18T02:56:49.791Z,99.53
2019-01-18T02:59:21.057Z,99.48
2019-01-18T03:01:52.306Z,99.32
2019-01-18T03:04:29.483Z,99.04
2019-01-18T03:07:00.864Z,99.01
2019-01-18T03:09:32.135Z,98.90
2019-01-18T03:12:03.473Z,98.75
2019-01-18T03:14:34.743Z,98.59
2019-01-18T03:17:06.001Z,98.39
2019-01-18T03:19:37.294Z,98.15
2019-01-18T03:22:08.602Z,97.79
2019-01-18T03:24:39.862Z,97.60
2019-01-18T03:27:11.148Z,97.44
2019-01-18T03:29:42.402Z,97.34
2019-01-18T03:32:13.712Z,97.26
2019-01-18T03:34:44.940Z,97.21
2019-01-18T03:37:16.236Z,97.29
2019-01-18T03:39:47.430Z,97.43
2019-01-18T03:42:18.736Z,97.45
2019-01-18T03:44:49.980Z,97.43
2019-01-18T03:47:21.188Z,97.33
2019-01-18T03:49:52.436Z,97.39
2019-01-18T03:52:23.905Z,97.35
2019-01-18T03:54:55.151Z,97.36
2019-01-18T03:57:26.456Z,97.45
2019-01-18T03:59:57.783Z,97.52
2019-01-18T04:02:28.960Z,97.56
2019-01-18T04:05:00.313Z,97.60
2019-01-18T04:07:31.569Z,97.60
2019-01-18T04:10:02.835Z,97.41
2019-01-18T04:12:34.113Z,97.13
2019-01-18T04:15:07.297Z,97.09
2019-01-18T04:17:38.634Z,97.05
2019-01-18T04:20:12.325Z,97.11
2019-01-18T04:22:43.835Z,97.15
2019-01-18T04:25:21.984Z,97.35
2019-01-18T04:27:53.227Z,97.67
2019-01-18T04:30:25.039Z,97.83
2019-01-18T04:32:56.372Z,97.89
2019-01-18T04:35:27.643Z,97.78
2019-01-18T04:37:59.135Z,97.62
2019-01-18T04:40:30.709Z,97.55
2019-01-18T04:43:02.000Z,97.59
2019-01-18T04:45:33.239Z,97.63
2019-01-18T04:48:04.552Z,97.79
2019-01-18T04:50:35.807Z,97.99
2019-01-18T04:53:07.096Z,98.00
2019-01-18T04:55:38.269Z,98.04
2019-01-18T04:58:09.572Z,98.08
2019-01-18T05:00:41.676Z,98.07
2019-01-18T05:03:13.277Z,98.14
2019-01-18T05:05:44.674Z,98.23
2019-01-18T05:08:15.921Z,98.32
2019-01-18T05:10:47.220Z,98.44
2019-01-18T05:13:18.439Z,98.57
2019-01-18T05:15:49.768Z,98.67
2019-01-18T05:18:22.113Z,98.71
2019-01-18T05:20:53.474Z,98.83
2019-01-18T05:23:24.624Z,98.89
2019-01-18T05:25:55.964Z,98.96
2019-01-18T05:28:27.300Z,99.02
2019-01-18T05:30:58.673Z,99.06
2019-01-18T05:33:29.918Z,99.03
2019-01-18T05:36:01.266Z,98.98
2019-01-18T05:38:32.542Z,98.99
2019-01-18T05:41:03.845Z,99.01
2019-01-18T05:43:35.182Z,99.01
2019-01-18T05:46:06.511Z,98.98
2019-01-18T05:48:37.754Z,99.03
2019-01-18T05:51:08.995Z,99.12
2019-01-18T05:53:40.481Z,99.27
2019-01-18T05:56:11.768Z,99.44
2019-01-18T05:58:43.044Z,99.51
2019-01-18T06:01:15.215Z,99.56
2019-01-18T06:03:46.503Z,99.61
2019-01-18T06:06:17.880Z,99.66
2019-01-18T06:08:49.140Z,99.65
2019-01-18T06:11:21.774Z,99.65
2019-01-18T06:13:53.089Z,99.68
2019-01-18T06:16:23.134Z,99.72
2019-01-18T06:18:54.464Z,99.79
2019-01-18T06:21:25.818Z,99.84
2019-01-18T06:23:57.074Z,99.90
2019-01-18T06:26:28.409Z,99.90
2019-01-18T06:28:59.683Z,99.91
2019-01-18T06:31:31.025Z,99.93
2019-01-18T06:34:02.404Z,100.00
2019-01-18T06:36:33.673Z,100.00
2019-01-18T06:39:07.261Z,100.00
2019-01-18T06:41:47.478Z,100.00
2019-01-18T06:44:18.829Z,100.00
2019-01-18T06:46:50.040Z,100.00
2019-01-18T06:49:21.470Z,100.00
2019-01-18T06:51:52.757Z,100.00
2019-01-18T06:54:24.084Z,100.00
2019-01-18T06:56:55.524Z,100.00
2019-01-18T06:59:26.812Z,100.00
2019-01-18T07:01:58.188Z,100.00
2019-01-18T07:04:29.491Z,100.00
2019-01-18T07:07:00.896Z,100.00
2019-01-18T07:09:32.213Z,100.00
2019-01-18T07:12:03.487Z,100.00
2019-01-18T07:14:34.813Z,100.00
2019-01-18T07:17:06.089Z,100.00
2019-01-18T07:19:37.681Z,100.00
2019-01-18T07:22:08.993Z,100.00
2019-01-18T07:24:40.298Z,100.00
2019-01-18T07:27:11.576Z,100.00
2019-01-18T07:32:13.522Z,100.00
2019-01-18T07:34:44.794Z,100.00
2019-01-18T07:37:15.989Z,100.00
2019-01-18T07:39:47.485Z,100.00
2019-01-18T07:42:18.727Z,100.00
2019-01-18T07:44:50.059Z,100.00
2019-01-18T07:47:21.330Z,100.00
2019-01-18T07:49:52.667Z,100.00
2019-01-18T07:52:23.965Z,100.00
2019-01-18T07:54:55.284Z,100.00
2019-01-18T07:57:26.646Z,100.00
2019-01-18T07:59:57.920Z,100.00
2019-01-18T08:02:29.423Z,100.00
2019-01-18T08:05:00.756Z,100.00
2019-01-18T08:07:32.491Z,100.00
2019-01-18T08:10:04.001Z,100.00
2019-01-18T08:12:35.567Z,100.00
2019-01-18T08:15:09.514Z,100.00
2019-01-18T08:17:41.850Z,100.00
2019-01-18T08:20:17.778Z,100.00
2019-01-18T08:22:51.442Z,100.00
2019-01-18T08:25:23.575Z,100.00
2019-01-18T08:27:56.406Z,100.00
2019-01-18T08:30:30.627Z,100.00
2019-01-18T08:33:03.938Z,100.00
2019-01-18T08:35:35.737Z,100.00
2019-01-18T08:38:07.740Z,100.00
2019-01-18T08:40:43.768Z,100.00
2019-01-18T08:43:17.397Z,100.00
2019-01-18T08:45:55.335Z,100.00
2019-01-18T08:48:26.568Z,100.00
2019-01-18T08:50:57.868Z,100.00
2019-01-18T08:53:29.500Z,100.00
2019-01-18T08:56:00.954Z,100.00
2019-01-18T08:58:32.130Z,100.00
2019-01-18T09:01:03.494Z,100.00
2019-01-18T09:03:34.770Z,100.00
2019-01-18T09:06:06.244Z,100.00
2019-01-18T09:08:37.502Z,100.00
2019-01-18T09:11:08.778Z,100.00
2019-01-18T09:13:40.018Z,100.00
2019-01-18T09:16:11.304Z,100.00
2019-01-18T09:18:42.629Z,100.00
2019-01-18T09:21:13.902Z,100.00
2019-01-18T09:23:45.167Z,100.00
2019-01-18T09:26:16.356Z,100.00
2019-01-18T09:28:47.593Z,100.00
2019-01-18T09:31:18.971Z,100.00
2019-01-18T09:33:50.329Z,100.00
2019-01-18T09:36:21.570Z,100.00
2019-01-18T09:38:52.791Z,100.00
2019-01-18T09:41:24.062Z,100.00
2019-01-18T09:43:55.223Z,100.00
2019-01-18T09:46:26.574Z,100.00
2019-01-18T09:48:57.900Z,100.00
2019-01-18T09:54:00.542Z,100.00
2019-01-18T09:56:34.691Z,100.00
2019-01-18T09:59:06.009Z,100.00
2019-01-18T10:01:37.339Z,100.00
2019-01-18T10:04:08.923Z,100.00
2019-01-18T10:06:40.413Z,100.00
2019-01-18T10:09:12.072Z,100.00
2019-01-18T10:11:43.404Z,100.00
2019-01-18T10:14:14.720Z,100.00
2019-01-18T10:16:46.051Z,100.00
2019-01-18T10:19:17.453Z,100.00
2019-01-18T10:21:49.102Z,100.00
2019-01-18T10:24:21.096Z,100.00
2019-01-18T10:26:55.387Z,100.00
2019-01-18T10:29:35.779Z,100.00
2019-01-18T10:32:18.251Z,100.00
2019-01-18T10:34:55.685Z,100.00
2019-01-18T10:37:29.312Z,100.00
2019-01-18T10:40:04.725Z,100.00
2019-01-18T10:42:37.469Z,100.00
2019-01-18T10:45:11.746Z,100.00
2019-01-18T10:47:43.280Z,100.00
2019-01-18T10:50:26.909Z,100.00
2019-01-18T10:53:00.563Z,100.00
2019-01-18T10:55:31.933Z,100.00
2019-01-18T10:58:03.443Z,100.00
2019-01-18T11:00:40.085Z,100.00
2019-01-18T11:03:12.519Z,100.00
2019-01-18T11:05:50.975Z,100.00
2019-01-18T11:08:22.249Z,100.00
2019-01-18T11:10:53.924Z,100.00
2019-01-18T11:13:25.316Z,100.00
2019-01-18T11:15:56.575Z,100.00
2019-01-18T11:18:27.851Z,100.00
2019-01-18T11:21:11.788Z,100.00
2019-01-18T11:23:43.107Z,100.00
2019-01-18T11:26:14.375Z,100.00
2019-01-18T11:28:45.647Z,100.00
2019-01-18T11:31:16.938Z,100.00
2019-01-18T11:33:54.394Z,100.00
2019-01-18T11:36:25.647Z,100.00
2019-01-18T11:38:56.873Z,100.00
2019-01-18T11:41:29.105Z,100.00
2019-01-18T11:44:00.371Z,100.00
2019-01-18T11:46:41.096Z,100.00
2019-01-18T11:49:12.347Z,100.00
2019-01-18T11:51:43.595Z,100.00
2019-01-18T11:54:14.906Z,100.00
2019-01-18T11:56:46.152Z,100.00
2019-01-18T11:59:17.588Z,100.00
2019-01-18T12:01:48.808Z,100.00
2019-01-18T12:04:20.069Z,99.51
2019-01-18T12:06:51.304Z,99.70
2019-01-18T12:09:22.526Z,99.76
2019-01-18T12:11:53.779Z,100.00
2019-01-18T12:14:25.063Z,100.00
2019-01-18T12:16:59.175Z,100.00
2019-01-18T12:19:36.598Z,100.00
2019-01-18T12:22:08.098Z,100.00
2019-01-18T12:24:39.397Z,100.00
2019-01-18T12:27:10.819Z,100.00
2019-01-18T12:29:47.182Z,99.83
2019-01-18T12:32:28.614Z,99.70
2019-01-18T12:34:55.453Z,99.64
2019-01-18T12:37:26.771Z,99.49
2019-01-18T12:39:57.995Z,99.36
2019-01-18T12:42:29.335Z,99.23
2019-01-18T12:45:01.256Z,99.02
2019-01-18T12:47:32.815Z,99.04
2019-01-18T12:50:04.064Z,98.73
2019-01-18T12:52:35.403Z,98.49
2019-01-18T12:55:07.795Z,97.85
2019-01-18T12:57:39.124Z,97.18
2019-01-18T13:00:15.335Z,96.37
2019-01-18T13:02:46.969Z,96.69
2019-01-18T13:05:22.762Z,95.59
2019-01-18T13:07:55.322Z,94.84
2019-01-18T13:10:26.768Z,95.05
2019-01-18T13:12:58.052Z,95.07
2019-01-18T13:15:57.985Z,92.76
2019-01-18T13:18:29.315Z,91.00
2019-01-18T13:21:00.692Z,92.42
2019-01-18T13:23:32.028Z,90.63
2019-01-18T13:26:03.285Z,92.91
2019-01-18T13:28:34.478Z,92.18
2019-01-18T13:31:05.970Z,90.91
2019-01-18T13:33:37.301Z,87.16
2019-01-18T13:36:15.485Z,87.31
2019-01-18T13:38:47.152Z,89.97
2019-01-18T13:41:18.456Z,90.75
2019-01-18T13:43:49.755Z,90.92
2019-01-18T13:46:21.184Z,90.93
2019-01-18T13:48:54.903Z,89.80
2019-01-18T13:51:26.252Z,90.22
2019-01-18T13:53:57.606Z,90.09
2019-01-18T13:56:30.572Z,88.15
2019-01-18T13:59:01.970Z,85.74
2019-01-18T14:01:33.204Z,85.62
2019-01-18T14:04:04.591Z,86.16
2019-01-18T14:06:35.836Z,85.42
2019-01-18T14:09:10.420Z,84.41
2019-01-18T14:11:41.760Z,84.83
2019-01-18T14:14:13.118Z,85.39
2019-01-18T14:16:44.493Z,84.48
2019-01-18T14:19:16.063Z,82.64
2019-01-18T14:21:47.358Z,78.75
2019-01-18T14:24:18.601Z,76.97
2019-01-18T14:26:53.900Z,78.38
2019-01-18T14:29:25.311Z,76.72
2019-01-18T14:31:56.600Z,72.30
2019-01-18T14:34:27.890Z,71.79
2019-01-18T14:37:01.504Z,73.75
2019-01-18T14:39:32.878Z,70.43
2019-01-18T14:42:04.198Z,72.88
2019-01-18T14:44:35.466Z,73.84
2019-01-18T14:47:07.608Z,75.85
2019-01-18T14:49:38.942Z,76.55
2019-01-18T14:52:10.968Z,78.60
2019-01-18T14:54:42.205Z,78.01
2019-01-18T14:57:13.500Z,76.68
2019-01-18T14:59:44.910Z,78.85
2019-01-18T15:02:16.303Z,79.61
2019-01-18T15:04:48.438Z,79.59
2019-01-18T15:07:19.625Z,79.96
2019-01-18T15:09:52.380Z,80.59
2019-01-18T15:12:23.658Z,79.91
2019-01-18T15:14:54.925Z,80.13
2019-01-18T15:17:26.129Z,80.13
2019-01-18T15:20:02.742Z,81.13
2019-01-18T15:22:34.039Z,81.37
2019-01-18T15:25:05.733Z,80.65
2019-01-18T15:27:37.007Z,80.75
2019-01-18T15:30:10.946Z,81.41
2019-01-18T15:32:42.207Z,81.79
2019-01-18T15:35:17.188Z,82.49
2019-01-18T15:37:48.436Z,82.57
2019-01-18T15:40:25.933Z,82.56
2019-01-18T15:42:59.333Z,82.90
2019-01-18T15:45:30.553Z,83.99
2019-01-18T15:48:01.981Z,84.49
2019-01-18T15:50:38.867Z,84.78
2019-01-18T15:53:12.337Z,84.72
2019-01-18T15:55:43.667Z,84.87
2019-01-18T15:58:15.518Z,85.60
2019-01-18T16:00:47.144Z,85.85
2019-01-18T16:03:18.580Z,86.31
2019-01-18T16:05:49.817Z,86.42
2019-01-18T16:08:21.053Z,86.88
2019-01-18T16:10:52.339Z,87.20
2019-01-18T16:13:26.223Z,87.60
2019-01-18T16:16:24.314Z,88.51
2019-01-18T16:18:59.029Z,89.08
2019-01-18T16:21:30.448Z,89.29
2019-01-18T16:24:01.805Z,89.67
2019-01-18T16:26:33.056Z,90.33
2019-01-18T16:29:04.462Z,91.00
2019-01-18T16:31:35.804Z,91.36
2019-01-18T16:34:07.364Z,91.61
2019-01-18T16:36:38.710Z,91.49
2019-01-18T16:39:12.048Z,91.89
2019-01-18T16:41:43.682Z,92.32
2019-01-18T16:44:15.011Z,92.60
2019-01-18T16:46:46.328Z,93.14
2019-01-18T16:49:17.713Z,93.46
2019-01-18T16:51:48.990Z,93.69
2019-01-18T16:54:20.594Z,93.85
2019-01-18T16:56:51.879Z,94.11
2019-01-18T16:59:23.275Z,94.27
2019-01-18T17:01:54.731Z,94.26
2019-01-18T17:04:26.036Z,94.52
2019-01-18T17:06:57.323Z,94.73
2019-01-18T17:09:28.634Z,95.01
2019-01-18T17:11:59.877Z,94.94
2019-01-18T17:14:31.218Z,94.79
2019-01-18T17:17:02.645Z,94.78
2019-01-18T17:19:33.946Z,94.94
2019-01-18T17:22:05.230Z,94.99
2019-01-18T17:24:36.500Z,94.99
2019-01-18T17:27:07.799Z,95.10
2019-01-18T17:29:39.307Z,95.11
2019-01-18T17:32:10.593Z,95.08
2019-01-18T17:34:41.876Z,95.09
2019-01-18T17:37:30.497Z,95.01
2019-01-18T17:40:42.418Z,95.08
2019-01-18T17:44:09.556Z,95.16
2019-01-18T17:47:43.443Z,95.30
2019-01-18T17:51:01.732Z,95.37
2019-01-18T17:54:27.068Z,95.37
2019-01-18T17:57:55.775Z,95.31
2019-01-18T18:00:58.182Z,95.21
2019-01-18T18:04:31.268Z,95.29
2019-01-18T18:07:45.515Z,95.34
2019-01-18T18:11:11.115Z,95.47
2019-01-18T18:14:28.977Z,95.63
2019-01-18T18:18:20.937Z,95.62
2019-01-18T18:22:03.094Z,95.71
2019-01-18T18:25:00.432Z,95.93
2019-01-18T18:28:14.952Z,95.96
2019-01-18T18:31:46.333Z,95.90
2019-01-18T18:35:11.806Z,95.88
2019-01-18T18:38:51.886Z,95.78
2019-01-18T18:42:06.121Z,95.83
2019-01-18T18:45:40.108Z,96.12
2019-01-18T18:49:01.166Z,96.36
2019-01-18T18:52:34.028Z,96.48
2019-01-18T18:56:01.142Z,96.51
2019-01-18T18:59:18.485Z,96.48
2019-01-18T19:02:56.918Z,96.54
2019-01-18T19:06:42.868Z,96.75
2019-01-18T19:10:03.283Z,97.00
2019-01-18T19:13:54.921Z,96.54
2019-01-18T19:17:33.470Z,95.58
2019-01-18T19:21:13.362Z,94.01
2019-01-18T19:24:46.344Z,93.53
2019-01-18T19:28:06.282Z,92.79
2019-01-18T19:31:29.442Z,92.03
2019-01-18T19:35:01.909Z,91.44
2019-01-18T19:38:50.269Z,91.35
2019-01-18T19:42:28.902Z,91.73
2019-01-18T19:45:50.453Z,90.84
2019-01-18T19:49:14.646Z,91.10
2019-01-18T19:52:51.817Z,91.65
2019-01-18T19:56:21.012Z,92.45
2019-01-18T20:00:00.990Z,92.91
2019-01-18T20:03:04.579Z,93.10
2019-01-18T20:06:59.444Z,93.19
2019-01-18T20:10:05.467Z,93.45
2019-01-18T20:13:51.133Z,93.77
2019-01-18T20:17:15.687Z,94.09
2019-01-18T20:20:52.652Z,94.39
2019-01-18T20:24:18.107Z,94.16
2019-01-18T20:27:32.166Z,94.00
2019-01-18T20:30:54.444Z,93.88
2019-01-18T20:34:19.796Z,94.09
2019-01-18T20:37:34.300Z,93.94
2019-01-18T20:40:52.530Z,93.59
2019-01-18T20:44:32.881Z,93.23
2019-01-18T20:47:55.463Z,93.11
2019-01-18T20:51:26.986Z,93.36
2019-01-18T20:55:06.091Z,92.49
2019-01-18T20:58:19.380Z,91.08
2019-01-18T21:02:09.009Z,89.09
2019-01-18T21:05:24.920Z,87.81
2019-01-18T21:08:55.210Z,87.61
2019-01-18T21:12:00.979Z,87.94
2019-01-18T21:15:17.838Z,88.69
2019-01-18T21:18:34.838Z,88.35
2019-01-18T21:21:58.010Z,87.28
2019-01-18T21:25:12.401Z,87.36
2019-01-18T21:28:58.258Z,87.83
2019-01-18T21:32:28.771Z,87.90
2019-01-18T21:35:57.303Z,88.66
2019-01-18T21:39:55.434Z,89.63
2019-01-18T21:43:15.276Z,90.38
2019-01-18T21:46:20.200Z,90.86
2019-01-18T21:49:53.855Z,91.14
2019-01-18T21:53:25.174Z,91.25
2019-01-18T21:56:40.861Z,91.49
2019-01-18T21:59:53.355Z,91.62
2019-01-18T22:03:15.051Z,91.25
2019-01-18T22:06:42.411Z,91.35
2019-01-18T22:09:44.630Z,91.68
2019-01-18T22:13:06.272Z,91.67
2019-01-18T22:16:25.579Z,91.72
2019-01-18T22:20:13.774Z,91.92
2019-01-18T22:23:05.901Z,92.23
2019-01-18T22:26:50.536Z,92.63
2019-01-18T22:30:19.252Z,92.81
2019-01-18T22:33:26.312Z,93.08
2019-01-18T22:36:53.031Z,93.49
2019-01-18T22:40:25.030Z,93.46
2019-01-18T22:43:55.008Z,93.32
2019-01-18T22:47:40.089Z,93.33
2019-01-18T22:51:04.619Z,93.44
2019-01-18T22:54:18.368Z,93.63
2019-01-18T22:58:01.715Z,94.01
2019-01-18T23:01:53.115Z,94.17
2019-01-18T23:05:21.429Z,94.46
2019-01-18T23:08:41.588Z,94.72
2019-01-18T23:11:58.694Z,95.03
2019-01-18T23:15:38.989Z,95.46
2019-01-18T23:18:51.859Z,95.99
2019-01-18T23:22:18.155Z,96.24
2019-01-18T23:25:34.379Z,96.37
2019-01-18T23:28:59.086Z,96.32
2019-01-18T23:32:01.317Z,96.27
2019-01-18T23:35:03.158Z,96.34
2019-01-18T23:38:40.049Z,96.45
2019-01-18T23:42:11.091Z,96.40
2019-01-18T23:45:48.285Z,96.30
2019-01-18T23:49:08.431Z,96.35
2019-01-18T23:52:40.865Z,96.46
2019-01-18T23:56:21.292Z,96.45
2019-01-18T23:59:47.421Z,96.38
